createdAt,value
2019-01-28T13:00:15.053Z,5.5
2019-01-28T13:00:35.090Z,5.4
2019-01-28T13:00:55.402Z,5.5
2019-01-28T13:01:15.636Z,5.5
2019-01-28T13:01:36.533Z,5.4
2019-01-28T13:01:56.687Z,5.4
2019-01-28T13:02:16.839Z,5.4
2019-01-28T13:02:36.959Z,5.5
2019-01-28T13:02:59.488Z,5.5
2019-01-28T13:03:19.563Z,5.5
2019-01-28T13:03:39.680Z,5.5
2019-01-28T13:04:00.061Z,5.5
2019-01-28T13:04:20.848Z,5.4
2019-01-28T13:04:47.098Z,5.5
2019-01-28T13:05:07.140Z,5.4
2019-01-28T13:05:27.434Z,5.5
2019-01-28T13:05:47.573Z,5.4
2019-01-28T13:06:07.685Z,5.5
2019-01-28T13:06:27.860Z,5.4
2019-01-28T13:06:48.059Z,5.5
2019-01-28T13:07:08.185Z,5.4
2019-01-28T13:07:28.333Z,5.4
2019-01-28T13:07:48.470Z,5.5
2019-01-28T13:08:08.521Z,5.5
2019-01-28T13:08:30.362Z,5.4
2019-01-28T13:08:50.420Z,5.5
2019-01-28T13:09:10.567Z,5.5
2019-01-28T13:09:32.008Z,5.6
2019-01-28T13:09:52.201Z,5.5
2019-01-28T13:10:12.282Z,5.5
2019-01-28T13:10:33.206Z,5.5
2019-01-28T13:10:53.361Z,5.5
2019-01-28T13:11:13.563Z,5.4
2019-01-28T13:11:33.734Z,5.5
2019-01-28T13:11:53.892Z,5.4
2019-01-28T13:12:13.979Z,5.5
2019-01-28T13:12:34.140Z,5.5
2019-01-28T13:12:54.398Z,5.4
2019-01-28T13:13:14.526Z,5.5
2019-01-28T13:13:34.830Z,5.3
2019-01-28T13:13:58.993Z,5.4
2019-01-28T13:14:19.236Z,5.4
2019-01-28T13:14:39.349Z,5.4
2019-01-28T13:14:59.583Z,5.3
2019-01-28T13:15:19.818Z,5.3
2019-01-28T13:15:39.994Z,5.3
2019-01-28T13:16:00.100Z,5.4
2019-01-28T13:16:20.254Z,5.4
2019-01-28T13:16:40.394Z,5.4
2019-01-28T13:17:00.519Z,5.4
2019-01-28T13:17:20.620Z,5.4
2019-01-28T13:17:41.551Z,5.3
2019-01-28T13:18:01.793Z,5.4
2019-01-28T13:18:23.016Z,5.3
2019-01-28T13:18:43.262Z,5.3
2019-01-28T13:19:03.369Z,5.3
2019-01-28T13:19:29.984Z,5.3
2019-01-28T13:19:50.353Z,5.3
2019-01-28T13:20:11.544Z,5.3
2019-01-28T13:20:31.737Z,5.3
2019-01-28T13:20:52.823Z,5.3
2019-01-28T13:21:12.970Z,5.3
2019-01-28T13:21:33.406Z,5.2
2019-01-28T13:21:53.607Z,5.2
2019-01-28T13:22:13.793Z,5.2
2019-01-28T13:22:33.967Z,5.2
2019-01-28T13:23:02.566Z,5.2
2019-01-28T13:23:22.837Z,5.2
2019-01-28T13:23:43.115Z,5.2
2019-01-28T13:24:03.410Z,5.2
2019-01-28T13:24:23.531Z,5.2
2019-01-28T13:24:43.676Z,5.2
2019-01-28T13:25:03.777Z,5.2
2019-01-28T13:25:28.255Z,5.2
2019-01-28T13:25:48.416Z,5.2
2019-01-28T13:26:08.502Z,5.2
2019-01-28T13:26:29.716Z,5.3
2019-01-28T13:26:49.795Z,5.3
2019-01-28T13:27:09.986Z,5.3
2019-01-28T13:27:30.155Z,5.3
2019-01-28T13:27:50.345Z,5.3
2019-01-28T13:28:10.400Z,5.3
2019-01-28T13:28:30.602Z,5.2
2019-01-28T13:28:50.752Z,5.3
2019-01-28T13:29:10.876Z,5.3
2019-01-28T13:29:30.929Z,5.3
2019-01-28T13:29:51.066Z,5.3
2019-01-28T13:30:12.857Z,5.3
2019-01-28T13:30:32.960Z,5.3
2019-01-28T13:30:53.071Z,5.3
2019-01-28T13:31:13.223Z,5.3
2019-01-28T13:31:38.069Z,5.4
2019-01-28T13:31:58.342Z,5.3
2019-01-28T13:32:18.485Z,5.4
2019-01-28T13:32:38.690Z,5.4
2019-01-28T13:32:58.915Z,5.4
2019-01-28T13:33:18.995Z,5.4
2019-01-28T13:33:39.171Z,5.4
2019-01-28T13:33:59.268Z,5.4
2019-01-28T13:34:20.175Z,5.4
2019-01-28T13:34:40.305Z,5.4
2019-01-28T13:35:00.478Z,5.4
2019-01-28T13:35:20.730Z,5.5
2019-01-28T13:35:40.865Z,5.5
2019-01-28T13:36:00.979Z,5.4
2019-01-28T13:36:26.837Z,5.5
2019-01-28T13:36:47.076Z,5.5
2019-01-28T13:37:07.184Z,5.4
2019-01-28T13:37:27.365Z,5.5
2019-01-28T13:37:47.984Z,5.5
2019-01-28T13:38:08.198Z,5.4
2019-01-28T13:38:28.369Z,5.5
2019-01-28T13:38:48.537Z,5.4
2019-01-28T13:39:08.635Z,5.5
2019-01-28T13:39:29.221Z,5.4
2019-01-28T13:39:49.500Z,5.4
2019-01-28T13:40:09.905Z,5.4
2019-01-28T13:40:30.027Z,5.4
2019-01-28T13:40:50.294Z,5.4
2019-01-28T13:41:10.490Z,5.5
2019-01-28T13:41:30.660Z,5.4
2019-01-28T13:41:52.323Z,5.4
2019-01-28T13:42:12.542Z,5.4
2019-01-28T13:42:32.600Z,5.4
2019-01-28T13:42:52.699Z,5.4
2019-01-28T13:43:12.826Z,5.4
2019-01-28T13:43:32.968Z,5.4
2019-01-28T13:43:53.148Z,5.4
2019-01-28T13:44:13.366Z,5.4
2019-01-28T13:44:33.595Z,5.4
2019-01-28T13:44:54.277Z,5.4
2019-01-28T13:45:14.329Z,5.4
2019-01-28T13:45:34.482Z,5.4
2019-01-28T13:45:54.611Z,5.4
2019-01-28T13:46:14.696Z,5.4
2019-01-28T13:46:34.880Z,5.4
2019-01-28T13:46:55.024Z,5.4
2019-01-28T13:47:15.208Z,5.4
2019-01-28T13:47:35.430Z,5.4
2019-01-28T13:47:55.629Z,5.4
2019-01-28T13:48:15.808Z,5.4
2019-01-28T13:48:35.991Z,5.4
2019-01-28T13:48:56.158Z,5.4
2019-01-28T13:49:16.188Z,5.3
2019-01-28T13:49:43.291Z,5.4
2019-01-28T13:50:03.410Z,5.3
2019-01-28T13:50:23.627Z,5.3
2019-01-28T13:50:43.767Z,5.3
2019-01-28T13:51:03.955Z,5.4
2019-01-28T13:51:24.295Z,5.3
2019-01-28T13:51:44.432Z,5.3
2019-01-28T13:52:04.627Z,5.3
2019-01-28T13:52:24.729Z,5.3
2019-01-28T13:52:46.827Z,5.3
2019-01-28T13:53:07.508Z,5.2
2019-01-28T13:53:27.611Z,5.2
2019-01-28T13:53:47.713Z,5.3
2019-01-28T13:54:07.801Z,5.2
2019-01-28T13:54:28.048Z,5.2
2019-01-28T13:54:48.193Z,5.3
2019-01-28T13:55:08.381Z,5.2
2019-01-28T13:55:28.448Z,5.2
2019-01-28T13:55:48.766Z,5.3
2019-01-28T13:56:08.923Z,5.2
2019-01-28T13:56:30.583Z,5.2
2019-01-28T13:56:50.747Z,5.2
2019-01-28T13:57:10.911Z,5.2
2019-01-28T13:57:31.067Z,5.2
2019-01-28T13:57:51.281Z,5.2
2019-01-28T13:58:12.044Z,5.2
2019-01-28T13:58:32.217Z,5.1
2019-01-28T13:58:54.153Z,5.2
2019-01-28T13:59:21.325Z,5.2
2019-01-28T13:59:41.519Z,5.2
2019-01-28T14:00:01.721Z,5.2
2019-01-28T14:00:21.881Z,5.2
2019-01-28T14:00:42.007Z,5.2
2019-01-28T14:01:02.209Z,5.1
2019-01-28T14:01:22.463Z,5.1
2019-01-28T14:01:42.580Z,5.1
2019-01-28T14:02:02.715Z,5.2
2019-01-28T14:02:22.961Z,5.1
2019-01-28T14:02:43.053Z,5.2
2019-01-28T14:03:03.728Z,5.1
2019-01-28T14:03:23.858Z,5.2
2019-01-28T14:03:43.910Z,5.1
2019-01-28T14:04:05.972Z,5.1
2019-01-28T14:04:26.052Z,5.1
2019-01-28T14:04:46.211Z,5.2
2019-01-28T14:05:06.282Z,5.2
2019-01-28T14:05:26.365Z,5.2
2019-01-28T14:05:46.555Z,5.1
2019-01-28T14:06:06.716Z,5.1
2019-01-28T14:06:26.913Z,5.1
2019-01-28T14:06:47.090Z,5.1
2019-01-28T14:07:07.173Z,5.1
2019-01-28T14:07:27.320Z,5
2019-01-28T14:07:47.422Z,5
2019-01-28T14:08:07.597Z,5
2019-01-28T14:08:27.655Z,5.1
2019-01-28T14:08:47.897Z,5
2019-01-28T14:09:08.052Z,5.1
2019-01-28T14:09:28.119Z,5
2019-01-28T14:09:48.294Z,5
2019-01-28T14:10:08.408Z,5
2019-01-28T14:10:28.573Z,5
2019-01-28T14:10:48.735Z,5.1
2019-01-28T14:11:08.832Z,5
2019-01-28T14:11:28.926Z,5.1
2019-01-28T14:11:49.093Z,5.1
2019-01-28T14:12:09.156Z,5.1
2019-01-28T14:12:29.268Z,5.1
2019-01-28T14:12:49.371Z,5.2
2019-01-28T14:13:09.541Z,5.2
2019-01-28T14:13:29.761Z,5.1
2019-01-28T14:13:49.947Z,5.1
2019-01-28T14:14:10.063Z,5.2
2019-01-28T14:14:30.329Z,5.2
2019-01-28T14:14:50.481Z,5.1
2019-01-28T14:15:10.729Z,5.1
2019-01-28T14:15:30.858Z,5.1
2019-01-28T14:15:51.125Z,5.1
2019-01-28T14:16:11.269Z,5
2019-01-28T14:16:31.433Z,5.1
2019-01-28T14:16:51.631Z,5.1
2019-01-28T14:17:11.705Z,5
2019-01-28T14:17:32.418Z,5.1
2019-01-28T14:17:52.661Z,5.1
2019-01-28T14:18:12.809Z,5
2019-01-28T14:18:32.967Z,5
2019-01-28T14:18:53.081Z,5
2019-01-28T14:19:13.241Z,5
2019-01-28T14:19:33.495Z,5
2019-01-28T14:20:01.486Z,5.1
2019-01-28T14:20:21.771Z,5.1
2019-01-28T14:20:42.032Z,5
2019-01-28T14:21:05.892Z,4.9
2019-01-28T14:21:26.108Z,5.1
2019-01-28T14:21:46.402Z,4.9
2019-01-28T14:22:06.647Z,5
2019-01-28T14:22:26.814Z,5.1
2019-01-28T14:22:46.987Z,5
2019-01-28T14:23:07.110Z,5
2019-01-28T14:23:29.087Z,5
2019-01-28T14:23:49.248Z,5.1
2019-01-28T14:24:09.322Z,4.9
2019-01-28T14:24:29.433Z,4.9
2019-01-28T14:24:49.652Z,5
2019-01-28T14:25:09.907Z,5
2019-01-28T14:25:29.978Z,4.9
2019-01-28T14:25:50.135Z,5.1
2019-01-28T14:26:10.218Z,5
2019-01-28T14:26:30.270Z,5
2019-01-28T14:26:50.368Z,5.1
2019-01-28T14:27:10.527Z,5.1
2019-01-28T14:27:30.618Z,5
2019-01-28T14:27:54.727Z,5
2019-01-28T14:28:18.056Z,5
2019-01-28T14:28:38.085Z,4.9
2019-01-28T14:28:58.879Z,5
2019-01-28T14:29:19.008Z,5
2019-01-28T14:29:39.285Z,4.9
2019-01-28T14:29:59.505Z,5
2019-01-28T14:30:19.680Z,5
